Terminal Aerodrome Forecast
Issued by NWS Twin Cities, MN

Home | Current Version | Previous Version | Graphics & Text | Print | Product List | Glossary On
Versions: 1 2 3 4 5 6 7 8 9 10 11 12 13 14 15 16 17 18
000
FTUS43 KMPX 271100 RRA
TAFSTC
TAF
KSTC 271143Z 2712/2812 VRB03KT P6SM SKC
     FM272100 17005KT P6SM BKN150
     FM280400 14012KT 4SM -SN SCT015 OVC035
      TEMPO 2804/2808 1SM -SN BKN020
     FM280900 14013KT 6SM -SN OVC050=

USA.gov is the U.S. government's official web portal to all federal, state and local government web resources and services.